Moe, South Dakota
Current Conditions -  °F | °C
As of 2:15 PM on Friday 31 Oct 2014 (Local Time) from KORC Reporting Station
Clear Clear  
Wind Chill:   Ceiling: Unl
Heat Index:   Visibility: 10mi
Dew Point: -9°   Wind: 5mph
Humidity: 39%   Direction: 70°ENE
Pressure: 30.51"   Gusts: NA
Location:  43.1282°N, 96.5674°W
Report Text: KORC 311915Z AUTO 07004KT 10SM CLR 04/M09 A3051 RMK AO2
Loading
Personal Weather Stations






























Interactive Weather Map
Tropical Storm Tracking
New forecast layout! Learn more

10-Day Weather Forecast

Advertisements
Track Severe Weather on mobile